createdAt,value
2017-04-07T00:00:05.931Z,19.9
2017-04-07T00:02:05.149Z,19.9
2017-04-07T00:04:07.360Z,19.9
2017-04-07T00:06:05.197Z,19.9
2017-04-07T00:08:04.861Z,19.9
2017-04-07T00:10:05.059Z,19.9
2017-04-07T00:12:04.906Z,19.8
2017-04-07T00:14:04.698Z,19.9
2017-04-07T00:16:07.967Z,19.8
2017-04-07T00:18:07.770Z,19.9
2017-04-07T00:20:05.480Z,19.9
2017-04-07T00:22:05.490Z,19.8
2017-04-07T00:24:08.767Z,19.8
2017-04-07T00:26:05.054Z,19.8
2017-04-07T00:28:09.816Z,19.8
2017-04-07T00:30:05.662Z,19.8
2017-04-07T00:32:07.907Z,19.9
2017-04-07T00:34:08.125Z,19.8
2017-04-07T00:36:05.207Z,19.8
2017-04-07T00:38:05.029Z,19.9
2017-04-07T00:40:09.789Z,19.8
2017-04-07T00:42:05.195Z,19.8
2017-04-07T00:44:05.019Z,19.8
2017-04-07T00:46:12.280Z,19.8
2017-04-07T00:48:05.295Z,19.8
2017-04-07T00:50:04.939Z,19.9
2017-04-07T00:52:05.134Z,19.8
2017-04-07T00:54:10.226Z,19.8
2017-04-07T00:56:04.891Z,19.8
2017-04-07T00:58:08.197Z,19.8
2017-04-07T01:00:05.223Z,19.8
2017-04-07T01:02:05.561Z,19.8
2017-04-07T01:04:10.357Z,19.8
2017-04-07T01:06:05.216Z,19.8
2017-04-07T01:08:05.015Z,19.8
2017-04-07T01:10:04.867Z,19.8
2017-04-07T01:12:06.456Z,19.8
2017-04-07T01:14:05.172Z,19.8
2017-04-07T01:16:04.941Z,19.8
2017-04-07T01:18:07.700Z,19.9
2017-04-07T01:20:07.948Z,19.8
2017-04-07T01:22:04.730Z,19.8
2017-04-07T01:24:08.261Z,19.8
2017-04-07T01:26:07.775Z,19.8
2017-04-07T01:28:05.490Z,19.8
2017-04-07T01:30:05.484Z,19.8
2017-04-07T01:32:05.188Z,19.8
2017-04-07T01:34:07.376Z,19.8
2017-04-07T01:36:05.147Z,19.8
2017-04-07T01:38:04.916Z,19.8
2017-04-07T01:40:04.667Z,19.8
2017-04-07T01:42:05.722Z,19.8
2017-04-07T01:44:05.381Z,19.8
2017-04-07T01:46:08.166Z,19.8
2017-04-07T01:48:05.174Z,19.8
2017-04-07T01:50:04.920Z,19.8
2017-04-07T01:52:10.663Z,19.8
2017-04-07T01:54:05.666Z,19.8
2017-04-07T01:56:05.373Z,19.8
2017-04-07T01:58:07.954Z,19.8
2017-04-07T02:00:05.311Z,19.8
2017-04-07T02:02:04.991Z,19.8
2017-04-07T02:04:05.258Z,19.8
2017-04-07T02:06:05.287Z,19.8
2017-04-07T02:08:04.990Z,19.8
2017-04-07T02:10:04.705Z,19.8
2017-04-07T02:12:05.594Z,19.8
2017-04-07T02:14:08.111Z,19.8
2017-04-07T02:16:04.787Z,19.8
2017-04-07T02:18:07.448Z,19.8
2017-04-07T02:20:05.133Z,19.8
2017-04-07T02:22:04.837Z,19.8
2017-04-07T02:24:08.395Z,19.8
2017-04-07T02:26:07.622Z,19.8
2017-04-07T02:28:07.821Z,19.8
2017-04-07T02:30:05.867Z,19.8
2017-04-07T02:32:05.182Z,19.8
2017-04-07T02:34:04.977Z,19.8
2017-04-07T02:36:05.017Z,19.8
2017-04-07T02:38:07.277Z,19.8
2017-04-07T02:40:07.586Z,19.8
2017-04-07T02:42:05.645Z,19.8
2017-04-07T02:44:05.435Z,19.8
2017-04-07T02:46:05.390Z,19.8
2017-04-07T02:48:10.439Z,19.8
2017-04-07T02:50:05.127Z,19.8
2017-04-07T02:52:04.827Z,19.8
2017-04-07T02:54:05.854Z,19.8
2017-04-07T02:56:05.639Z,19.8
2017-04-07T02:58:05.299Z,19.8
2017-04-07T03:00:08.221Z,19.7
2017-04-07T03:02:05.799Z,19.8
2017-04-07T03:04:05.481Z,19.8
2017-04-07T03:06:07.893Z,19.8
2017-04-07T03:08:05.557Z,19.8
2017-04-07T03:10:07.824Z,19.8
2017-04-07T03:12:05.945Z,19.8
2017-04-07T03:14:07.194Z,19.8
2017-04-07T03:16:13.023Z,19.8
2017-04-07T03:18:05.655Z,19.8
2017-04-07T03:20:05.353Z,19.8
2017-04-07T03:22:05.142Z,19.8
2017-04-07T03:24:05.950Z,19.8
2017-04-07T03:26:07.184Z,19.8
2017-04-07T03:28:07.451Z,19.8
2017-04-07T03:30:05.276Z,19.8
2017-04-07T03:32:04.954Z,19.8
2017-04-07T03:34:06.010Z,19.8
2017-04-07T03:36:07.371Z,19.7
2017-04-07T03:38:05.041Z,19.7
2017-04-07T03:40:07.228Z,19.8
2017-04-07T03:42:05.823Z,19.8
2017-04-07T03:44:04.733Z,19.8
2017-04-07T03:46:05.516Z,19.8
2017-04-07T03:48:10.475Z,19.7
2017-04-07T03:50:05.365Z,19.8
2017-04-07T03:52:07.632Z,19.8
2017-04-07T03:54:05.179Z,19.7
2017-04-07T03:56:07.422Z,19.8
2017-04-07T03:58:07.724Z,19.8
2017-04-07T04:00:05.755Z,19.8
2017-04-07T04:02:07.842Z,19.8
2017-04-07T04:04:04.804Z,19.7
2017-04-07T04:06:07.354Z,19.7
2017-04-07T04:08:25.622Z,19.8
2017-04-07T04:10:19.894Z,19.7
2017-04-07T04:12:06.164Z,19.8
2017-04-07T04:14:04.859Z,19.8
2017-04-07T04:16:05.580Z,19.7
2017-04-07T04:18:05.600Z,19.7
2017-04-07T04:20:05.282Z,19.7
2017-04-07T04:22:05.475Z,19.7
2017-04-07T04:24:05.330Z,19.7
2017-04-07T04:26:05.082Z,19.7
2017-04-07T04:28:04.791Z,19.8
2017-04-07T04:30:08.388Z,19.7
2017-04-07T04:32:05.394Z,19.7
2017-04-07T04:34:07.691Z,19.7
2017-04-07T04:36:08.671Z,19.8
2017-04-07T04:38:05.582Z,19.8
2017-04-07T04:40:05.364Z,19.8
2017-04-07T04:42:10.886Z,19.8
2017-04-07T04:44:05.136Z,19.7
2017-04-07T04:46:04.869Z,19.7
2017-04-07T04:48:05.703Z,19.7
2017-04-07T04:50:04.896Z,19.8
2017-04-07T04:52:05.576Z,19.7
2017-04-07T04:54:11.253Z,19.8
2017-04-07T04:56:05.278Z,19.8
2017-04-07T04:58:04.973Z,19.8
2017-04-07T05:00:04.892Z,19.7
2017-04-07T05:02:09.879Z,19.7
2017-04-07T05:04:05.128Z,19.7
2017-04-07T05:06:04.968Z,19.7
2017-04-07T05:08:04.654Z,19.7
2017-04-07T05:10:05.545Z,19.8
2017-04-07T05:12:05.366Z,19.7
2017-04-07T05:14:10.086Z,19.7
2017-04-07T05:16:04.787Z,19.7
2017-04-07T05:18:04.801Z,19.7
2017-04-07T05:20:07.726Z,19.7
2017-04-07T05:22:08.002Z,19.7
2017-04-07T05:24:04.983Z,19.7
2017-04-07T05:26:04.874Z,19.7
2017-04-07T05:28:05.609Z,19.8
2017-04-07T05:30:10.626Z,19.7
2017-04-07T05:32:04.875Z,19.7
2017-04-07T05:34:05.572Z,19.8
2017-04-07T05:36:05.464Z,19.8
2017-04-07T05:38:07.742Z,19.7
2017-04-07T05:40:08.116Z,19.7
2017-04-07T05:42:05.259Z,19.7
2017-04-07T05:44:05.044Z,19.8
2017-04-07T05:46:05.234Z,19.7
2017-04-07T05:48:05.113Z,19.8
2017-04-07T05:50:04.807Z,19.7
2017-04-07T05:52:05.489Z,19.7
2017-04-07T05:54:05.448Z,19.8
2017-04-07T05:56:05.313Z,19.7
2017-04-07T05:58:07.876Z,19.7
2017-04-07T06:00:04.905Z,19.7
2017-04-07T06:02:05.548Z,19.7
2017-04-07T06:04:05.275Z,19.7
2017-04-07T06:06:08.315Z,19.8
2017-04-07T06:08:05.006Z,19.7
2017-04-07T06:10:04.764Z,19.7
2017-04-07T06:12:04.903Z,19.7
2017-04-07T06:14:05.974Z,19.7
2017-04-07T06:16:07.365Z,19.7
2017-04-07T06:18:06.135Z,19.7
2017-04-07T06:20:04.856Z,19.7
2017-04-07T06:22:05.672Z,19.7
2017-04-07T06:24:05.176Z,19.7
2017-04-07T06:26:04.901Z,19.8
2017-04-07T06:28:05.387Z,19.7
2017-04-07T06:30:05.417Z,19.7
2017-04-07T06:32:05.133Z,19.7
2017-04-07T06:34:05.295Z,19.8
2017-04-07T06:36:05.397Z,19.8
2017-04-07T06:38:05.373Z,19.7
2017-04-07T06:40:05.269Z,19.7
2017-04-07T06:42:05.557Z,19.8
2017-04-07T06:44:15.432Z,19.8
2017-04-07T06:46:05.308Z,19.8
2017-04-07T06:48:05.629Z,19.7
2017-04-07T06:50:05.424Z,19.7
2017-04-07T06:52:07.648Z,19.7
2017-04-07T06:54:04.947Z,19.8
2017-04-07T06:56:04.656Z,19.7
2017-04-07T06:58:04.907Z,19.7
2017-04-07T07:00:05.955Z,19.8
2017-04-07T07:02:04.958Z,19.8
2017-04-07T07:04:05.218Z,19.8
2017-04-07T07:06:05.235Z,19.8
2017-04-07T07:08:07.512Z,19.8
2017-04-07T07:10:05.375Z,19.8
2017-04-07T07:12:05.185Z,19.8
2017-04-07T07:14:04.859Z,19.8
2017-04-07T07:16:04.842Z,19.8
2017-04-07T07:18:05.683Z,19.8
2017-04-07T07:20:07.428Z,19.8
2017-04-07T07:22:05.168Z,19.8
2017-04-07T07:24:07.682Z,19.8
2017-04-07T07:26:04.938Z,19.8
2017-04-07T07:28:04.618Z,19.8
2017-04-07T07:30:07.706Z,19.8
2017-04-07T07:32:07.643Z,19.8
2017-04-07T07:34:05.820Z,19.8
2017-04-07T07:36:05.490Z,19.8
2017-04-07T07:38:05.197Z,19.8
2017-04-07T07:40:07.419Z,19.8
2017-04-07T07:42:05.534Z,19.8
2017-04-07T07:44:05.336Z,19.8
2017-04-07T07:46:05.016Z,19.8
2017-04-07T07:48:05.519Z,19.8
2017-04-07T07:50:06.319Z,19.8
2017-04-07T07:52:05.018Z,19.8
2017-04-07T07:54:04.884Z,19.8
2017-04-07T07:56:05.566Z,19.8
2017-04-07T07:58:05.252Z,19.8
2017-04-07T08:00:05.344Z,19.8
2017-04-07T08:02:05.287Z,19.8
2017-04-07T08:04:04.752Z,19.8
2017-04-07T08:06:10.896Z,19.9
2017-04-07T08:08:05.637Z,19.9
2017-04-07T08:10:05.357Z,19.9
2017-04-07T08:12:10.344Z,19.9
2017-04-07T08:14:07.623Z,19.9
2017-04-07T08:16:07.884Z,19.9
2017-04-07T08:18:05.003Z,19.9
2017-04-07T08:20:04.685Z,19.9
2017-04-07T08:22:05.752Z,19.9
2017-04-07T08:24:05.165Z,19.9
2017-04-07T08:26:07.429Z,19.9
2017-04-07T08:28:05.179Z,20
2017-04-07T08:30:05.145Z,20
2017-04-07T08:32:05.349Z,20
2017-04-07T08:34:05.552Z,20
2017-04-07T08:36:05.563Z,20
2017-04-07T08:38:05.716Z,20
2017-04-07T08:40:05.301Z,20
2017-04-07T08:42:05.116Z,20
2017-04-07T08:44:04.761Z,20
2017-04-07T08:46:04.827Z,20
2017-04-07T08:48:05.533Z,20
2017-04-07T08:50:09.933Z,20
2017-04-07T08:52:07.872Z,20
2017-04-07T08:54:05.851Z,20
2017-04-07T08:56:05.584Z,20
2017-04-07T08:58:05.359Z,20
2017-04-07T09:00:05.395Z,20
2017-04-07T09:02:05.138Z,20
2017-04-07T09:04:06.385Z,20
2017-04-07T09:06:09.919Z,20
2017-04-07T09:08:05.698Z,20
2017-04-07T09:10:07.750Z,20.1
2017-04-07T09:12:11.306Z,20.1
2017-04-07T09:14:05.549Z,20.1
2017-04-07T09:16:05.252Z,20.1
2017-04-07T09:18:05.521Z,20.1
2017-04-07T09:20:05.243Z,20
2017-04-07T09:22:04.961Z,20
2017-04-07T09:24:04.877Z,20
2017-04-07T09:26:07.786Z,20
2017-04-07T09:28:08.030Z,20
2017-04-07T09:30:05.433Z,20
2017-04-07T09:32:05.205Z,20
2017-04-07T09:34:04.953Z,20
2017-04-07T09:36:10.060Z,20
2017-04-07T09:38:04.764Z,20
2017-04-07T09:40:05.432Z,20
2017-04-07T09:42:05.490Z,20
2017-04-07T09:44:05.229Z,20.1
2017-04-07T09:46:04.937Z,20.1
2017-04-07T09:48:05.506Z,20.1
2017-04-07T09:50:05.245Z,20.1
2017-04-07T09:52:08.041Z,20.1
2017-04-07T09:54:08.143Z,20.1
2017-04-07T09:56:04.816Z,20.1
2017-04-07T09:58:05.775Z,20.1
2017-04-07T10:00:05.835Z,20.1
2017-04-07T10:02:08.034Z,20.1
2017-04-07T10:04:07.231Z,20.1
2017-04-07T10:06:05.816Z,20.1
2017-04-07T10:08:05.550Z,20.1
2017-04-07T10:10:04.752Z,20.1
2017-04-07T10:12:05.900Z,20
2017-04-07T10:14:07.436Z,20.1
2017-04-07T10:16:05.120Z,20.1
2017-04-07T10:18:05.329Z,20.1
2017-04-07T10:20:05.525Z,20.1
2017-04-07T10:22:04.777Z,20.1
2017-04-07T10:24:05.851Z,20.1
2017-04-07T10:26:05.661Z,20.1
2017-04-07T10:28:04.941Z,20.1
2017-04-07T10:30:04.788Z,20.1
2017-04-07T10:32:05.007Z,20.1
2017-04-07T10:34:05.275Z,20.1
2017-04-07T10:36:05.235Z,20.1
2017-04-07T10:38:04.916Z,20.1
2017-04-07T10:40:07.648Z,20.1
2017-04-07T10:42:08.001Z,20.1
2017-04-07T10:44:04.792Z,20.1
2017-04-07T10:46:11.255Z,20.1
2017-04-07T10:48:05.971Z,20.1
2017-04-07T10:50:04.675Z,20.1
2017-04-07T10:52:05.378Z,20.1
2017-04-07T10:54:05.271Z,20.1
2017-04-07T10:56:07.516Z,20.1
2017-04-07T10:58:05.239Z,20.1
2017-04-07T11:00:05.087Z,20.1
2017-04-07T11:02:04.916Z,20.1
2017-04-07T11:04:04.580Z,20.1
2017-04-07T11:06:06.359Z,20.2
2017-04-07T11:08:05.195Z,20.1
2017-04-07T11:10:05.392Z,20.1
2017-04-07T11:12:05.422Z,20.1
2017-04-07T11:14:07.679Z,20.1
2017-04-07T11:16:05.343Z,20.2
2017-04-07T11:18:04.897Z,20.2
2017-04-07T11:20:05.584Z,20.2
2017-04-07T11:22:04.787Z,20.1
2017-04-07T11:24:05.862Z,20.1
2017-04-07T11:26:05.571Z,20.1
2017-04-07T11:28:05.248Z,20.2
2017-04-07T11:30:05.256Z,20.2
2017-04-07T11:32:05.036Z,20.2
2017-04-07T11:34:05.042Z,20.2
2017-04-07T11:36:05.523Z,20.2
2017-04-07T11:38:05.217Z,20.2
2017-04-07T11:40:04.964Z,20.2
2017-04-07T11:42:05.103Z,20.2
2017-04-07T11:44:04.851Z,20.2
2017-04-07T11:46:04.660Z,20.2
2017-04-07T11:48:05.503Z,20.2
2017-04-07T11:50:10.606Z,20.2
2017-04-07T11:52:05.318Z,20.1
2017-04-07T11:54:05.336Z,20.2
2017-04-07T11:56:07.780Z,20.1
2017-04-07T11:58:05.489Z,20.1
2017-04-07T12:00:04.960Z,20.1
2017-04-07T12:02:04.715Z,20.2
2017-04-07T12:04:05.481Z,20.1
2017-04-07T12:06:10.428Z,20.1
2017-04-07T12:08:04.740Z,20.1
2017-04-07T12:10:04.669Z,20.2
2017-04-07T12:12:05.828Z,20.1
2017-04-07T12:14:05.530Z,20.1
2017-04-07T12:16:05.249Z,20.1
2017-04-07T12:18:10.527Z,20.1
2017-04-07T12:20:05.206Z,20.1
2017-04-07T12:22:05.004Z,20.1
2017-04-07T12:24:04.986Z,20.1
2017-04-07T12:26:04.956Z,20.1
2017-04-07T12:28:04.717Z,20.1
2017-04-07T12:30:05.686Z,20.1
2017-04-07T12:32:07.884Z,20.1
2017-04-07T12:34:04.614Z,20.1
2017-04-07T12:36:05.521Z,20.1
2017-04-07T12:38:05.545Z,20.1
2017-04-07T12:40:05.016Z,20.1
2017-04-07T12:42:05.005Z,20.1
2017-04-07T12:44:04.776Z,20.1
2017-04-07T12:46:05.458Z,20.1
2017-04-07T12:48:05.522Z,20.1
2017-04-07T12:50:05.214Z,20.1
2017-04-07T12:52:12.515Z,20.1
2017-04-07T12:54:05.145Z,20.1
2017-04-07T12:56:07.374Z,20.1
2017-04-07T12:58:05.214Z,20.1
2017-04-07T13:00:07.655Z,20.1
2017-04-07T13:02:05.336Z,20.1
2017-04-07T13:04:05.105Z,20.1
2017-04-07T13:06:05.034Z,20.1
2017-04-07T13:08:04.784Z,20.1
2017-04-07T13:10:05.700Z,20
2017-04-07T13:12:05.534Z,20.1
2017-04-07T13:16:05.317Z,20
2017-04-07T13:18:05.534Z,20
2017-04-07T13:20:07.798Z,20
2017-04-07T13:22:05.535Z,20
2017-04-07T13:24:05.553Z,20.1
2017-04-07T13:26:07.945Z,20
2017-04-07T13:28:04.681Z,20
2017-04-07T13:30:13.073Z,20
2017-04-07T13:32:04.733Z,20
2017-04-07T13:34:05.589Z,20
2017-04-07T13:36:05.489Z,20
2017-04-07T13:38:07.750Z,20
2017-04-07T13:40:05.394Z,20
2017-04-07T13:42:05.395Z,20
2017-04-07T13:44:04.629Z,20
2017-04-07T13:46:07.366Z,20
2017-04-07T13:48:05.252Z,20
2017-04-07T13:50:05.056Z,20
2017-04-07T13:52:05.311Z,20
2017-04-07T13:54:05.779Z,20
2017-04-07T13:56:05.581Z,20
2017-04-07T13:58:10.597Z,20
2017-04-07T14:00:05.689Z,20
2017-04-07T14:02:07.965Z,20
2017-04-07T14:04:04.626Z,20
2017-04-07T14:06:05.682Z,20
2017-04-07T14:08:05.373Z,20
2017-04-07T14:10:07.608Z,20
2017-04-07T14:12:06.080Z,20
2017-04-07T14:14:05.283Z,20
2017-04-07T14:16:05.075Z,19.9
2017-04-07T14:18:05.344Z,20
2017-04-07T14:20:05.032Z,19.9
2017-04-07T14:22:05.289Z,20
2017-04-07T14:24:05.359Z,19.9
2017-04-07T14:26:07.573Z,19.9
2017-04-07T14:28:05.297Z,19.9
2017-04-07T14:30:05.947Z,20
2017-04-07T14:32:04.695Z,19.9
2017-04-07T14:34:05.478Z,19.9
2017-04-07T14:36:05.273Z,19.9
2017-04-07T14:38:17.938Z,19.9
2017-04-07T14:40:05.121Z,19.9
2017-04-07T14:42:05.960Z,19.9
2017-04-07T14:44:09.791Z,19.9
2017-04-07T14:46:06.135Z,19.9
2017-04-07T14:48:05.319Z,19.9
2017-04-07T14:50:06.423Z,19.9
2017-04-07T14:52:06.044Z,19.9
2017-04-07T14:54:05.590Z,19.9
2017-04-07T14:56:05.000Z,19.9
2017-04-07T14:58:08.485Z,19.9
2017-04-07T15:00:05.024Z,19.9
2017-04-07T15:02:10.078Z,19.9
2017-04-07T15:04:07.350Z,19.9
2017-04-07T15:06:05.695Z,19.9
2017-04-07T15:08:04.906Z,19.9
2017-04-07T15:10:04.658Z,19.9
2017-04-07T15:12:05.690Z,19.9
2017-04-07T15:14:04.887Z,19.9
2017-04-07T15:16:05.599Z,19.9
2017-04-07T15:18:05.631Z,20
2017-04-07T15:20:05.307Z,20
2017-04-07T15:22:07.867Z,20
2017-04-07T15:24:06.181Z,20
2017-04-07T15:26:04.905Z,20
2017-04-07T15:28:05.612Z,20
2017-04-07T15:30:07.518Z,20
2017-04-07T15:32:09.815Z,20
2017-04-07T15:34:05.662Z,20
2017-04-07T15:36:07.269Z,20
2017-04-07T15:38:04.872Z,20
2017-04-07T15:40:05.581Z,20
2017-04-07T15:42:08.290Z,20
2017-04-07T15:44:04.966Z,20
2017-04-07T15:46:04.725Z,20
2017-04-07T15:48:05.785Z,20
2017-04-07T15:50:05.659Z,20.1
2017-04-07T15:52:05.573Z,20.1
2017-04-07T15:54:05.073Z,20.1
2017-04-07T15:56:04.927Z,20.1
2017-04-07T15:58:05.152Z,20.1
2017-04-07T16:00:05.248Z,20.1
2017-04-07T16:02:10.555Z,20.1
2017-04-07T16:04:07.829Z,20.1
2017-04-07T16:06:05.040Z,20.1
2017-04-07T16:08:07.841Z,20.1
2017-04-07T16:10:05.531Z,20.1
2017-04-07T16:12:05.246Z,20.1
2017-04-07T16:14:04.970Z,20.1
2017-04-07T16:16:05.275Z,20.1
2017-04-07T16:18:05.476Z,20.1
2017-04-07T16:20:05.467Z,20.1
2017-04-07T16:22:05.700Z,20.1
2017-04-07T16:24:05.722Z,20.1
2017-04-07T16:26:05.578Z,20.1
2017-04-07T16:28:05.309Z,20.1
2017-04-07T16:30:05.799Z,20.1
2017-04-07T16:32:08.335Z,20.1
2017-04-07T16:34:04.856Z,20.1
2017-04-07T16:36:05.828Z,20.1
2017-04-07T16:38:11.009Z,20.1
2017-04-07T16:40:04.746Z,20.1
2017-04-07T16:42:10.078Z,20.1
2017-04-07T16:44:04.757Z,20.1
2017-04-07T16:46:04.642Z,20.2
2017-04-07T16:48:05.893Z,20.2
2017-04-07T16:50:04.624Z,20.2
2017-04-07T16:52:07.865Z,20.2
2017-04-07T16:54:07.964Z,20.2
2017-04-07T16:56:04.665Z,20.2
2017-04-07T16:58:05.417Z,20.2
2017-04-07T17:00:10.484Z,20.2
2017-04-07T17:02:07.721Z,20.2
2017-04-07T17:04:05.480Z,20.2
2017-04-07T17:06:05.493Z,20.2
2017-04-07T17:08:08.061Z,20.2
2017-04-07T17:10:04.890Z,20.2
2017-04-07T17:12:05.647Z,20.2
2017-04-07T17:14:10.446Z,20.2
2017-04-07T17:16:05.043Z,20.2
2017-04-07T17:18:07.341Z,20.2
2017-04-07T17:20:05.568Z,20.2
2017-04-07T17:22:05.595Z,20.3
2017-04-07T17:24:05.045Z,20.3
2017-04-07T17:26:05.113Z,20.3
2017-04-07T17:28:04.834Z,20.3
2017-04-07T17:30:10.879Z,20.3
2017-04-07T17:32:05.569Z,20.3
2017-04-07T17:34:05.280Z,20.3
2017-04-07T17:36:05.165Z,20.3
2017-04-07T17:38:08.873Z,20.4
2017-04-07T17:40:07.305Z,20.4
2017-04-07T17:42:05.732Z,20.4
2017-04-07T17:44:05.497Z,20.4
2017-04-07T17:46:05.201Z,20.4
2017-04-07T17:48:04.976Z,20.4
2017-04-07T17:50:05.459Z,20.4
2017-04-07T17:52:12.880Z,20.4
2017-04-07T17:54:05.908Z,20.4
2017-04-07T17:56:04.643Z,20.4
2017-04-07T17:58:11.045Z,20.4
2017-04-07T18:00:05.054Z,20.4
2017-04-07T18:02:04.978Z,20.4
2017-04-07T18:04:04.662Z,20.4
2017-04-07T18:06:05.175Z,20.4
2017-04-07T18:08:04.922Z,20.4
2017-04-07T18:10:05.351Z,20.4
2017-04-07T18:12:06.393Z,20.4
2017-04-07T18:14:05.603Z,20.5
2017-04-07T18:16:07.420Z,20.5
2017-04-07T18:18:05.056Z,20.5
2017-04-07T18:20:05.576Z,20.5
2017-04-07T18:22:04.829Z,20.5
2017-04-07T18:24:08.350Z,20.5
2017-04-07T18:26:05.144Z,20.5
2017-04-07T18:28:05.425Z,20.5
2017-04-07T18:30:05.551Z,20.5
2017-04-07T18:32:04.739Z,20.5
2017-04-07T18:34:05.451Z,20.5
2017-04-07T18:36:07.743Z,20.5
2017-04-07T18:38:05.433Z,20.5
2017-04-07T18:40:05.296Z,20.5
2017-04-07T18:42:05.631Z,20.5
2017-04-07T18:44:05.347Z,20.5
2017-04-07T18:46:05.455Z,20.5
2017-04-07T18:48:05.455Z,20.6
2017-04-07T18:50:05.591Z,20.6
2017-04-07T18:52:05.305Z,20.6
2017-04-07T18:54:04.889Z,20.6
2017-04-07T18:56:05.683Z,20.6
2017-04-07T18:58:04.995Z,20.6
2017-04-07T19:00:06.565Z,20.6
2017-04-07T19:02:05.574Z,20.6
2017-04-07T19:04:05.481Z,20.6
2017-04-07T19:06:10.520Z,20.6
2017-04-07T19:08:10.278Z,20.6
2017-04-07T19:10:05.037Z,20.6
2017-04-07T19:12:05.116Z,20.6
2017-04-07T19:14:04.826Z,20.6
2017-04-07T19:16:09.803Z,20.5
2017-04-07T19:18:05.107Z,20.6
2017-04-07T19:20:05.355Z,20.6
2017-04-07T19:22:05.048Z,20.6
2017-04-07T19:24:05.036Z,20.6
2017-04-07T19:26:04.700Z,20.6
2017-04-07T19:28:04.855Z,20.6
2017-04-07T19:30:05.739Z,20.6
2017-04-07T19:32:13.004Z,20.5
2017-04-07T19:34:07.497Z,20.6
2017-04-07T19:36:05.591Z,20.6
2017-04-07T19:38:05.296Z,20.6
2017-04-07T19:40:05.487Z,20.6
2017-04-07T19:42:07.889Z,20.6
2017-04-07T19:44:05.294Z,20.6
2017-04-07T19:46:07.785Z,20.6
2017-04-07T19:48:05.819Z,20.6
2017-04-07T19:50:05.266Z,20.6
2017-04-07T19:52:04.989Z,20.6
2017-04-07T19:54:05.374Z,20.6
2017-04-07T19:56:07.683Z,20.6
2017-04-07T19:58:05.456Z,20.6
2017-04-07T20:00:05.542Z,20.6
2017-04-07T20:02:05.294Z,20.6
2017-04-07T20:04:04.989Z,20.6
2017-04-07T20:06:10.357Z,20.6
2017-04-07T20:08:05.067Z,20.6
2017-04-07T20:10:04.739Z,20.6
2017-04-07T20:12:05.733Z,20.6
2017-04-07T20:14:05.427Z,20.6
2017-04-07T20:16:04.734Z,20.6
2017-04-07T20:18:09.841Z,20.6
2017-04-07T20:22:05.766Z,20.6
2017-04-07T20:24:08.248Z,20.6
2017-04-07T20:26:04.681Z,20.6
2017-04-07T20:28:09.980Z,20.6
2017-04-07T20:30:05.049Z,20.6
2017-04-07T20:32:04.734Z,20.6
2017-04-07T20:34:05.586Z,20.6
2017-04-07T20:36:05.600Z,20.6
2017-04-07T20:38:10.539Z,20.6
2017-04-07T20:40:05.247Z,20.6
2017-04-07T20:42:05.883Z,20.6
2017-04-07T20:44:05.165Z,20.6
2017-04-07T20:46:04.945Z,20.6
2017-04-07T20:48:07.534Z,20.6
2017-04-07T20:50:07.275Z,20.6
2017-04-07T20:52:07.605Z,20.6
2017-04-07T20:54:07.971Z,20.6
2017-04-07T20:56:05.866Z,20.6
2017-04-07T20:58:05.654Z,20.6
2017-04-07T21:00:13.365Z,20.6
2017-04-07T21:02:05.307Z,20.6
2017-04-07T21:04:05.526Z,20.6
2017-04-07T21:06:05.661Z,20.6
2017-04-07T21:08:05.340Z,20.7
2017-04-07T21:10:05.256Z,20.6
2017-04-07T21:12:05.154Z,20.6
2017-04-07T21:14:07.350Z,20.6
2017-04-07T21:16:05.112Z,20.7
2017-04-07T21:18:06.363Z,20.6
2017-04-07T21:20:04.771Z,20.6
2017-04-07T21:22:05.526Z,20.6
2017-04-07T21:24:05.376Z,20.7
2017-04-07T21:26:07.764Z,20.7
2017-04-07T21:28:07.523Z,20.7
2017-04-07T21:30:05.488Z,20.7
2017-04-07T21:32:05.175Z,20.7
2017-04-07T21:34:05.416Z,20.7
2017-04-07T21:36:05.416Z,20.6
2017-04-07T21:38:07.631Z,20.6
2017-04-07T21:40:04.874Z,20.7
2017-04-07T21:42:05.733Z,20.7
2017-04-07T21:44:07.997Z,20.7
2017-04-07T21:46:04.804Z,20.7
2017-04-07T21:48:05.630Z,20.7
2017-04-07T21:50:05.340Z,20.7
2017-04-07T21:52:10.085Z,20.7
2017-04-07T21:54:05.644Z,20.7
2017-04-07T21:56:05.384Z,20.7
2017-04-07T21:58:10.283Z,20.7
2017-04-07T22:00:05.227Z,20.6
2017-04-07T22:02:04.920Z,20.7
2017-04-07T22:04:05.144Z,20.7
2017-04-07T22:06:05.177Z,20.7
2017-04-07T22:08:05.426Z,20.7
2017-04-07T22:10:07.692Z,20.7
2017-04-07T22:12:10.654Z,20.7
2017-04-07T22:14:06.627Z,20.7
2017-04-07T22:16:06.300Z,20.7
2017-04-07T22:18:05.918Z,20.7
2017-04-07T22:20:05.109Z,20.7
2017-04-07T22:22:04.809Z,20.7
2017-04-07T22:24:14.699Z,20.7
2017-04-07T22:26:05.430Z,20.7
2017-04-07T22:28:05.354Z,20.7
2017-04-07T22:30:05.710Z,20.7
2017-04-07T22:32:05.444Z,20.7
2017-04-07T22:34:04.704Z,20.7
2017-04-07T22:36:05.764Z,20.7
2017-04-07T22:38:05.438Z,20.7
2017-04-07T22:40:05.102Z,20.7
2017-04-07T22:42:05.151Z,20.7
2017-04-07T22:44:04.854Z,20.7
2017-04-07T22:46:04.903Z,20.7
2017-04-07T22:48:05.759Z,20.7
2017-04-07T22:50:07.985Z,20.7
2017-04-07T22:52:04.701Z,20.7
2017-04-07T22:54:05.245Z,20.7
2017-04-07T22:56:05.504Z,20.7
2017-04-07T22:58:10.260Z,20.7
2017-04-07T23:00:07.822Z,20.7
2017-04-07T23:02:05.688Z,20.7
2017-04-07T23:04:07.490Z,20.7
2017-04-07T23:06:05.436Z,20.7
2017-04-07T23:08:08.022Z,20.7
2017-04-07T23:10:04.968Z,20.7
2017-04-07T23:12:07.641Z,20.7
2017-04-07T23:14:08.192Z,20.7
2017-04-07T23:16:07.525Z,20.7
2017-04-07T23:18:05.558Z,20.7
2017-04-07T23:20:05.624Z,20.7
2017-04-07T23:22:10.109Z,20.7
2017-04-07T23:24:07.765Z,20.7
2017-04-07T23:26:10.152Z,20.7
2017-04-07T23:28:07.907Z,20.7
2017-04-07T23:30:05.301Z,20.7
2017-04-07T23:32:05.759Z,20.8
2017-04-07T23:34:05.873Z,20.8
2017-04-07T23:36:05.333Z,20.7
2017-04-07T23:38:05.056Z,20.7
2017-04-07T23:40:04.757Z,20.8
2017-04-07T23:42:05.659Z,20.8
2017-04-07T23:44:05.385Z,20.8
2017-04-07T23:46:07.669Z,20.8
2017-04-07T23:48:06.561Z,20.8
2017-04-07T23:50:05.022Z,20.7
2017-04-07T23:52:12.434Z,20.8
2017-04-07T23:54:04.995Z,20.7
2017-04-07T23:56:07.201Z,20.8
2017-04-07T23:58:04.897Z,20.8
